Time;durP1;ratioP1;P1;durP2;ratioP2;P2;SDS_P1;SDS_P2;PMS_P1;PMS_P2;Temp;Humidity;BMP_temperature;BMP_pressure;BME280_temperature;BME280_humidity;BME280_pressure;Samples;Min_cycle;Max_cycle;Signal;HPM_P1;HPM_P2
2021/07/13 00:00:43;;;;;;;7.05;3.95;;;17.50;68.80;;;;;;5038456;28;20021;-70
2021/07/13 00:03:09;;;;;;;10.30;5.03;;;17.50;69.10;;;;;;5038060;28;20033;-70
2021/07/13 00:05:38;;;;;;;7.15;3.92;;;17.40;68.80;;;;;;5037753;28;20026;-70
2021/07/13 00:08:04;;;;;;;8.27;4.20;;;17.40;69.20;;;;;;5025070;28;20021;-70
2021/07/13 00:10:33;;;;;;;6.15;4.25;;;17.40;68.90;;;;;;5038114;28;20429;-70
2021/07/13 00:12:59;;;;;;;7.30;3.90;;;17.40;68.80;;;;;;5025600;28;20025;-70
2021/07/13 00:15:34;;;;;;;9.95;4.15;;;17.40;69.00;;;;;;5038104;28;20026;-70
2021/07/13 00:18:01;;;;;;;9.88;4.35;;;17.30;69.10;;;;;;5038003;28;20033;-70
2021/07/13 00:20:27;;;;;;;8.60;4.40;;;17.30;69.00;;;;;;5037763;28;20112;-69
2021/07/13 00:22:54;;;;;;;9.45;4.63;;;17.30;69.30;;;;;;5038039;28;20030;-70
2021/07/13 00:25:20;;;;;;;8.13;4.38;;;17.20;68.90;;;;;;5037958;28;20056;-69
2021/07/13 00:27:47;;;;;;;9.27;4.72;;;17.20;68.90;;;;;;5038003;28;20022;-70
2021/07/13 00:30:16;;;;;;;9.43;4.95;;;17.10;68.80;;;;;;5037891;28;20064;-70
2021/07/13 00:32:42;;;;;;;8.85;4.60;;;17.10;69.20;;;;;;5037970;28;20025;-70
2021/07/13 00:35:09;;;;;;;9.90;4.60;;;17.10;69.30;;;;;;5037537;28;20100;-70
2021/07/13 00:37:35;;;;;;;7.53;4.38;;;17.10;70.30;;;;;;5042516;28;20022;-70
2021/07/13 00:40:02;;;;;;;13.48;5.10;;;17.10;69.60;;;;;;5032803;28;20384;-70
2021/07/13 00:42:28;;;;;;;10.57;5.20;;;17.10;69.50;;;;;;5037889;28;20393;-70
2021/07/13 00:44:54;;;;;;;7.72;4.60;;;17.10;69.50;;;;;;5035967;28;20032;-70
2021/07/13 00:47:22;;;;;;;8.13;4.30;;;17.10;69.90;;;;;;5037902;28;20025;-70
2021/07/13 00:49:49;;;;;;;7.63;4.80;;;17.10;69.90;;;;;;5037313;28;20021;-70
2021/07/13 00:52:15;;;;;;;6.65;4.03;;;17.10;69.50;;;;;;5037755;28;20036;-70
2021/07/13 00:54:42;;;;;;;9.70;5.40;;;17.10;69.20;;;;;;5037445;28;20077;-70
2021/07/13 00:57:12;;;;;;;9.60;5.05;;;17.10;69.90;;;;;;5037612;28;20432;-70
2021/07/13 00:59:39;;;;;;;8.93;5.00;;;17.10;70.40;;;;;;5037319;28;20021;-70
2021/07/13 01:02:10;;;;;;;8.80;4.97;;;17.10;70.70;;;;;;5037601;28;20040;-70
2021/07/13 01:04:42;;;;;;;7.90;4.57;;;17.10;70.40;;;;;;5037106;28;20028;-70
2021/07/13 01:07:20;;;;;;;7.22;4.35;;;17.00;70.40;;;;;;5032881;28;20034;-70
2021/07/13 01:09:46;;;;;;;10.38;4.47;;;17.00;70.40;;;;;;5025291;28;20025;-70
2021/07/13 01:12:18;;;;;;;8.13;4.90;;;17.00;70.10;;;;;;5037073;28;20041;-70
2021/07/13 01:14:56;;;;;;;9.05;4.50;;;17.00;70.60;;;;;;5037524;28;20494;-70
2021/07/13 01:18:02;;;;;;;9.20;5.18;;;17.00;70.90;;;;;;5040012;28;20068;-70
2021/07/13 01:20:44;;;;;;;9.32;5.10;;;17.00;71.00;;;;;;5040928;28;20052;-70
2021/07/13 01:23:10;;;;;;;9.43;5.53;;;17.00;71.00;;;;;;5041454;28;20071;-70
2021/07/13 01:25:46;;;;;;;9.88;5.20;;;17.00;71.20;;;;;;5041159;28;20049;-70
2021/07/13 01:28:20;;;;;;;9.90;5.68;;;16.90;71.20;;;;;;5041512;28;20022;-70
2021/07/13 01:30:51;;;;;;;8.50;4.88;;;16.90;70.70;;;;;;5044052;28;20037;-70
2021/07/13 01:33:21;;;;;;;9.60;5.70;;;16.90;71.40;;;;;;5041020;28;20481;-70
2021/07/13 01:35:52;;;;;;;7.60;5.38;;;16.90;70.90;;;;;;5041298;28;20022;-70
2021/07/13 01:38:21;;;;;;;10.20;5.25;;;16.90;70.90;;;;;;5027610;28;20065;-70
2021/07/13 01:40:54;;;;;;;9.00;4.78;;;16.90;71.10;;;;;;5041019;28;20104;-70
2021/07/13 01:43:21;;;;;;;8.98;5.13;;;16.80;71.50;;;;;;5041130;28;20025;-70
2021/07/13 01:45:48;;;;;;;9.98;5.10;;;16.80;72.20;;;;;;5036398;28;20018;-70
2021/07/13 01:48:15;;;;;;;9.23;4.95;;;16.80;71.60;;;;;;5040599;28;20083;-70
2021/07/13 01:50:45;;;;;;;8.32;5.13;;;16.80;72.20;;;;;;5040929;28;20087;-70
2021/07/13 01:53:11;;;;;;;11.05;5.22;;;16.80;72.30;;;;;;5040917;28;20100;-70
2021/07/13 01:55:39;;;;;;;10.27;5.20;;;16.80;71.70;;;;;;5040949;28;20021;-70
2021/07/13 01:58:05;;;;;;;10.55;5.78;;;16.80;72.20;;;;;;5040795;28;20088;-70
2021/07/13 02:00:33;;;;;;;10.70;5.38;;;16.80;72.20;;;;;;5040872;28;20017;-70
2021/07/13 02:03:02;;;;;;;8.20;5.28;;;16.80;72.90;;;;;;5040347;28;20458;-70
2021/07/13 02:05:28;;;;;;;9.55;5.38;;;16.80;72.10;;;;;;5040827;28;20025;-70
2021/07/13 02:07:59;;;;;;;8.85;4.68;;;16.70;72.70;;;;;;5040440;28;20028;-70
2021/07/13 02:10:25;;;;;;;10.23;5.50;;;16.70;72.80;;;;;;5040448;28;20021;-70
2021/07/13 02:12:51;;;;;;;9.82;5.07;;;16.70;72.60;;;;;;5040537;28;20018;-70
2021/07/13 02:15:17;;;;;;;10.18;5.03;;;16.70;72.50;;;;;;5039206;28;20507;-70
2021/07/13 02:17:48;;;;;;;10.07;4.95;;;16.70;72.20;;;;;;5027036;28;20476;-70
2021/07/13 02:20:14;;;;;;;10.18;5.55;;;16.70;72.80;;;;;;5040169;28;20060;-70
2021/07/13 02:22:40;;;;;;;11.65;5.70;;;16.70;73.30;;;;;;5040387;28;20033;-70
2021/07/13 02:25:07;;;;;;;12.10;6.45;;;16.70;73.10;;;;;;5039988;28;20030;-70
2021/07/13 02:27:35;;;;;;;8.23;5.13;;;16.70;73.50;;;;;;5039942;28;20026;-70
2021/07/13 02:30:06;;;;;;;11.27;6.63;;;16.70;73.10;;;;;;5040002;28;20029;-70
2021/07/13 02:32:39;;;;;;;10.90;5.03;;;16.70;73.80;;;;;;5040181;28;20036;-70
2021/07/13 02:35:07;;;;;;;10.80;5.88;;;16.60;74.20;;;;;;5040188;28;20026;-70
2021/07/13 02:37:37;;;;;;;9.27;5.18;;;16.70;73.80;;;;;;5045114;28;20041;-70
2021/07/13 02:40:09;;;;;;;9.93;5.13;;;16.60;74.30;;;;;;5034156;28;20033;-70
2021/07/13 02:42:35;;;;;;;9.52;5.45;;;16.60;73.70;;;;;;5040134;28;20477;-70
2021/07/13 02:45:03;;;;;;;10.75;5.53;;;16.60;73.80;;;;;;5034583;28;20034;-70
2021/07/13 02:47:30;;;;;;;9.40;5.35;;;16.60;74.30;;;;;;5039874;28;20029;-70
2021/07/13 02:49:56;;;;;;;10.68;7.30;;;16.60;74.70;;;;;;5039383;28;20108;-70
2021/07/13 02:52:30;;;;;;;10.88;6.35;;;16.60;75.00;;;;;;5039756;28;20040;-70
2021/07/13 02:55:08;;;;;;;12.23;6.05;;;16.60;74.20;;;;;;5039455;28;20042;-70
2021/07/13 02:57:36;;;;;;;10.00;6.57;;;16.60;74.40;;;;;;5039802;28;20046;-70
2021/07/13 03:00:05;;;;;;;10.45;6.30;;;16.60;74.80;;;;;;5039645;28;20182;-70
2021/07/13 03:02:32;;;;;;;12.20;6.40;;;16.60;74.70;;;;;;5039605;28;20083;-70
2021/07/13 03:04:58;;;;;;;9.25;6.15;;;16.60;74.70;;;;;;5039471;28;20057;-70
2021/07/13 03:07:25;;;;;;;13.60;6.20;;;16.60;75.10;;;;;;5039315;28;20057;-70
2021/07/13 03:09:51;;;;;;;11.65;7.43;;;16.60;75.70;;;;;;5039549;28;20031;-70
2021/07/13 03:12:18;;;;;;;11.43;6.28;;;16.50;75.90;;;;;;5039092;28;20018;-70
2021/07/13 03:14:45;;;;;;;12.15;6.85;;;16.50;75.70;;;;;;5039469;28;20423;-70
2021/07/13 03:17:14;;;;;;;13.25;6.35;;;16.50;76.40;;;;;;5039384;28;20025;-70
2021/07/13 03:19:41;;;;;;;12.70;6.95;;;16.50;76.10;;;;;;5038848;28;20048;-70
2021/07/13 03:22:19;;;;;;;10.32;6.40;;;16.50;75.40;;;;;;5039086;28;20240;-70
2021/07/13 03:24:47;;;;;;;10.43;5.90;;;16.50;76.20;;;;;;5037781;28;20029;-70
2021/07/13 03:27:13;;;;;;;13.02;7.10;;;16.50;75.80;;;;;;5038798;28;20484;-70
2021/07/13 03:29:40;;;;;;;13.57;6.70;;;16.40;75.90;;;;;;5039211;28;20511;-70
2021/07/13 03:32:06;;;;;;;13.82;7.30;;;16.50;75.90;;;;;;5038988;28;20037;-71
2021/07/13 03:34:33;;;;;;;11.90;8.05;;;16.40;76.00;;;;;;5038910;28;20057;-70
2021/07/13 03:37:00;;;;;;;13.00;6.85;;;16.50;77.00;;;;;;5035390;28;20018;-70
2021/07/13 03:39:27;;;;;;;10.93;7.18;;;16.40;76.60;;;;;;5029451;28;20381;-71
2021/07/13 03:41:54;;;;;;;12.25;7.43;;;16.40;76.40;;;;;;5038604;28;20021;-70
2021/07/13 03:44:19;;;;;;;12.02;7.35;;;16.50;75.90;;;;;;5036429;28;20148;-70
2021/07/13 03:46:45;;;;;;;12.65;7.25;;;16.50;76.00;;;;;;5036480;28;20057;-70
2021/07/13 03:49:11;;;;;;;14.80;7.57;;;16.50;77.00;;;;;;5038623;28;20044;-70
2021/07/13 03:51:41;;;;;;;14.20;8.40;;;16.50;76.30;;;;;;5038351;28;20028;-70
2021/07/13 03:54:08;;;;;;;11.32;8.13;;;16.50;76.40;;;;;;5038825;28;20018;-70
2021/07/13 03:56:34;;;;;;;11.98;7.18;;;16.50;76.20;;;;;;5038278;28;20080;-71
2021/07/13 03:59:01;;;;;;;12.10;7.93;;;16.50;76.20;;;;;;5038425;28;20021;-70
2021/07/13 04:01:27;;;;;;;14.88;8.45;;;16.50;77.20;;;;;;5038295;28;20028;-70
2021/07/13 04:03:53;;;;;;;14.88;7.90;;;16.50;77.30;;;;;;5038188;28;20064;-71
2021/07/13 04:06:18;;;;;;;15.48;8.18;;;16.50;77.10;;;;;;5038186;28;20488;-70
2021/07/13 04:08:44;;;;;;;13.55;8.15;;;16.50;77.70;;;;;;5037024;28;20030;-71
2021/07/13 04:11:10;;;;;;;14.18;7.70;;;16.50;77.20;;;;;;5037950;28;20493;-70
2021/07/13 04:13:36;;;;;;;13.77;7.60;;;16.50;77.60;;;;;;5038470;28;20445;-70
2021/07/13 04:16:02;;;;;;;11.45;7.45;;;16.50;77.20;;;;;;5038208;28;20113;-71
2021/07/13 04:18:29;;;;;;;13.25;8.18;;;16.50;77.00;;;;;;5037986;28;20033;-70
2021/07/13 04:20:54;;;;;;;20.85;9.18;;;16.50;78.00;;;;;;5037773;28;20398;-70
2021/07/13 04:23:20;;;;;;;12.98;8.13;;;16.50;77.70;;;;;;5038029;28;20079;-71
2021/07/13 04:25:47;;;;;;;13.50;8.38;;;16.50;77.80;;;;;;5037786;28;20013;-71
2021/07/13 04:28:13;;;;;;;14.85;9.10;;;16.50;77.90;;;;;;5038044;28;20034;-71
2021/07/13 04:30:39;;;;;;;13.65;8.60;;;16.50;78.30;;;;;;5037990;28;20125;-71
2021/07/13 04:33:05;;;;;;;18.35;9.43;;;16.50;78.40;;;;;;5037555;28;20032;-71
2021/07/13 04:35:31;;;;;;;19.52;9.38;;;16.60;78.30;;;;;;5037991;28;20025;-71
2021/07/13 04:37:57;;;;;;;20.08;8.73;;;16.60;79.00;;;;;;5026474;28;20033;-70
2021/07/13 04:40:23;;;;;;;21.83;7.32;;;16.60;78.80;;;;;;5035910;28;20373;-71
2021/07/13 04:42:49;;;;;;;20.15;8.98;;;16.60;78.50;;;;;;5037914;28;20083;-71
2021/07/13 04:45:15;;;;;;;19.73;8.65;;;16.60;79.00;;;;;;5032833;28;20025;-71
2021/07/13 04:47:41;;;;;;;15.38;7.35;;;16.70;78.90;;;;;;5037742;28;20032;-70
2021/07/13 04:50:08;;;;;;;14.40;7.07;;;16.70;78.50;;;;;;5037480;28;20140;-71
2021/07/13 04:52:34;;;;;;;16.38;7.53;;;16.70;78.70;;;;;;5037252;28;20084;-70
2021/07/13 04:55:00;;;;;;;17.98;7.63;;;16.80;78.20;;;;;;5037315;28;20498;-70
2021/07/13 04:57:27;;;;;;;16.15;7.13;;;16.80;78.60;;;;;;5037727;28;20021;-70
2021/07/13 04:59:53;;;;;;;17.55;6.63;;;16.80;78.40;;;;;;5037321;28;20025;-71
2021/07/13 05:02:20;;;;;;;15.38;7.18;;;16.90;78.20;;;;;;5040062;28;20584;-71
2021/07/13 05:04:46;;;;;;;11.60;6.10;;;16.90;78.00;;;;;;5036870;28;20021;-71
2021/07/13 05:07:11;;;;;;;14.30;6.60;;;16.90;77.90;;;;;;5037394;28;20108;-71
2021/07/13 05:09:37;;;;;;;16.13;5.93;;;16.90;78.30;;;;;;5024315;28;20092;-71
2021/07/13 05:12:04;;;;;;;10.95;5.90;;;16.90;77.70;;;;;;5037147;28;20124;-71
2021/07/13 05:14:29;;;;;;;14.38;6.20;;;16.90;77.70;;;;;;5037545;28;20014;-71
2021/07/13 05:16:55;;;;;;;12.00;6.05;;;16.90;78.60;;;;;;5037260;28;20026;-71
2021/07/13 05:19:21;;;;;;;14.20;6.35;;;16.90;78.20;;;;;;5036647;28;20022;-71
2021/07/13 05:21:56;;;;;;;16.98;7.28;;;16.90;78.70;;;;;;5037343;28;20224;-71
2021/07/13 05:24:22;;;;;;;16.10;6.03;;;16.90;78.40;;;;;;5037371;28;20028;-70
2021/07/13 05:26:48;;;;;;;12.88;5.53;;;16.90;78.00;;;;;;5036909;28;20437;-71
2021/07/13 05:29:14;;;;;;;16.17;5.82;;;16.90;77.70;;;;;;5037157;28;20028;-70
2021/07/13 05:31:41;;;;;;;13.38;6.32;;;16.90;77.50;;;;;;5036947;28;20029;-71
2021/07/13 05:34:07;;;;;;;12.20;6.40;;;16.90;77.50;;;;;;5037059;28;20013;-78
2021/07/13 05:36:33;;;;;;;14.05;5.57;;;16.90;77.70;;;;;;5036911;28;20550;-78
2021/07/13 05:39:00;;;;;;;13.88;6.30;;;17.00;77.70;;;;;;5024243;28;20013;-72
2021/07/13 05:41:26;;;;;;;11.65;6.88;;;17.00;79.90;;;;;;5036904;28;20036;-72
2021/07/13 05:43:53;;;;;;;11.70;5.93;;;17.00;78.40;;;;;;5037392;28;20027;-71
2021/07/13 05:46:19;;;;;;;11.27;6.55;;;16.90;78.80;;;;;;5031631;28;20040;-75
2021/07/13 05:48:45;;;;;;;15.95;6.32;;;16.90;78.50;;;;;;5045186;28;20022;-73
2021/07/13 05:51:12;;;;;;;17.75;6.22;;;17.00;78.20;;;;;;5030636;28;20037;-73
2021/07/13 05:53:37;;;;;;;15.02;6.20;;;17.00;79.30;;;;;;5037080;28;20068;-72
2021/07/13 05:56:04;;;;;;;12.65;5.93;;;17.00;78.70;;;;;;5036880;28;20485;-72
2021/07/13 05:58:29;;;;;;;17.20;6.60;;;17.00;78.40;;;;;;5036861;28;20511;-71
2021/07/13 06:00:55;;;;;;;13.27;6.30;;;17.00;79.00;;;;;;5035394;28;20030;-72
2021/07/13 06:03:21;;;;;;;12.38;6.88;;;17.00;78.70;;;;;;5035753;28;20032;-72
2021/07/13 06:05:47;;;;;;;15.02;6.03;;;17.00;78.30;;;;;;5036252;28;20033;-71
2021/07/13 06:08:12;;;;;;;11.55;6.32;;;17.00;78.00;;;;;;5038707;28;20026;-69
2021/07/13 06:10:38;;;;;;;15.68;6.60;;;17.00;78.30;;;;;;5040022;28;20496;-71
2021/07/13 06:13:04;;;;;;;11.73;6.38;;;17.00;78.40;;;;;;5040494;28;20014;-70
2021/07/13 06:15:30;;;;;;;12.57;6.25;;;17.00;78.20;;;;;;5040329;28;20100;-70
2021/07/13 06:17:56;;;;;;;14.02;6.15;;;17.00;78.00;;;;;;5040205;28;20025;-70
2021/07/13 06:20:22;;;;;;;14.48;6.70;;;17.00;78.40;;;;;;5039977;28;20455;-71
2021/07/13 06:22:48;;;;;;;14.45;6.47;;;17.00;79.80;;;;;;5040278;28;20037;-70
2021/07/13 06:25:15;;;;;;;16.73;6.55;;;17.00;78.40;;;;;;5040041;28;20041;-71
2021/07/13 06:27:41;;;;;;;13.68;7.05;;;17.00;79.50;;;;;;5040281;28;20511;-71
2021/07/13 06:30:08;;;;;;;31.92;19.30;;;17.00;79.00;;;;;;5040029;28;20748;-71
2021/07/13 06:32:34;;;;;;;32.75;19.52;;;17.00;80.10;;;;;;5039791;28;20041;-71
2021/07/13 06:35:00;;;;;;;35.85;24.17;;;17.00;79.00;;;;;;5039950;28;20033;-71
2021/07/13 06:37:28;;;;;;;31.85;19.10;;;17.10;78.80;;;;;;5031433;28;20037;-71
2021/07/13 06:39:53;;;;;;;22.65;12.95;;;17.10;79.00;;;;;;5034387;28;20029;-70
2021/07/13 06:42:19;;;;;;;18.70;9.25;;;17.10;79.00;;;;;;5040329;28;20018;-70
2021/07/13 06:44:45;;;;;;;17.20;8.50;;;17.10;79.50;;;;;;5034985;28;20049;-71
2021/07/13 06:47:11;;;;;;;17.80;7.57;;;17.10;79.80;;;;;;5039943;28;20025;-71
2021/07/13 06:49:37;;;;;;;13.55;7.30;;;17.10;78.70;;;;;;5039348;28;20488;-71
2021/07/13 06:52:03;;;;;;;15.63;7.25;;;17.10;78.40;;;;;;5039737;28;20091;-71
2021/07/13 06:54:29;;;;;;;15.75;7.70;;;17.10;79.00;;;;;;5039705;28;20558;-70
2021/07/13 06:56:55;;;;;;;18.05;7.93;;;17.10;78.60;;;;;;5039635;28;20837;-71
2021/07/13 06:59:21;;;;;;;13.68;7.35;;;17.20;78.70;;;;;;5039429;28;20076;-71
2021/07/13 07:01:47;;;;;;;19.70;7.60;;;17.20;78.70;;;;;;5039615;28;20436;-70
2021/07/13 07:04:13;;;;;;;22.75;7.65;;;17.20;78.20;;;;;;5037804;28;20037;-71
2021/07/13 07:06:38;;;;;;;12.95;7.13;;;17.20;78.40;;;;;;5039658;28;20030;-71
2021/07/13 07:09:04;;;;;;;15.30;7.25;;;17.20;78.50;;;;;;5039121;28;20532;-71
2021/07/13 07:11:30;;;;;;;16.40;7.85;;;17.20;78.80;;;;;;5039416;28;20036;-74
2021/07/13 07:13:56;;;;;;;14.30;6.82;;;17.20;79.50;;;;;;5038818;28;20022;-71
2021/07/13 07:16:22;;;;;;;14.05;6.75;;;17.20;79.00;;;;;;5039554;28;20575;-71
2021/07/13 07:18:48;;;;;;;12.30;6.60;;;17.20;78.80;;;;;;5038770;28;20085;-71
2021/07/13 07:21:14;;;;;;;14.05;6.47;;;17.20;79.00;;;;;;5039013;28;20054;-70
2021/07/13 07:23:39;;;;;;;11.55;6.95;;;17.30;78.90;;;;;;5038804;28;20033;-71
2021/07/13 07:26:05;;;;;;;17.08;7.03;;;17.30;78.50;;;;;;5039121;28;20104;-71
2021/07/13 07:28:31;;;;;;;11.05;6.45;;;17.30;78.70;;;;;;5038855;28;20564;-71
2021/07/13 07:30:57;;;;;;;11.25;6.13;;;17.30;78.40;;;;;;5038953;28;20109;-71
2021/07/13 07:33:24;;;;;;;12.13;6.75;;;17.30;78.30;;;;;;5038539;28;20017;-71
2021/07/13 07:35:50;;;;;;;13.82;6.85;;;17.40;79.00;;;;;;5054312;28;20052;-70
2021/07/13 07:38:16;;;;;;;13.65;7.43;;;17.40;79.60;;;;;;5025643;28;20017;-70
2021/07/13 07:40:42;;;;;;;12.65;6.00;;;17.40;79.00;;;;;;5038695;28;20469;-71
2021/07/13 07:43:08;;;;;;;11.15;6.30;;;17.50;79.00;;;;;;5038722;28;20079;-71
2021/07/13 07:45:34;;;;;;;12.93;6.43;;;17.60;78.50;;;;;;5033979;28;20108;-71
2021/07/13 07:48:01;;;;;;;12.10;5.63;;;17.60;78.30;;;;;;5038458;28;20022;-71
2021/07/13 07:50:27;;;;;;;11.50;5.63;;;17.70;78.10;;;;;;5038641;28;20127;-71
2021/07/13 07:52:53;;;;;;;15.02;6.13;;;17.70;77.80;;;;;;5038734;28;20037;-70
2021/07/13 07:55:21;;;;;;;11.95;5.95;;;17.70;78.20;;;;;;5038745;28;20028;-71
2021/07/13 07:57:49;;;;;;;15.27;6.78;;;17.70;77.60;;;;;;5038446;28;20093;-70
2021/07/13 08:00:17;;;;;;;16.55;6.30;;;17.70;78.40;;;;;;5038322;28;20025;-70
2021/07/13 08:02:43;;;;;;;12.75;5.97;;;17.70;78.00;;;;;;5038013;28;20398;-70
2021/07/13 08:05:10;;;;;;;12.85;6.65;;;17.70;78.10;;;;;;5038640;28;20025;-70
2021/07/13 08:07:36;;;;;;;11.60;5.82;;;17.70;77.80;;;;;;5038353;28;20064;-70
2021/07/13 08:10:04;;;;;;;13.05;6.57;;;17.70;77.60;;;;;;5038123;28;20481;-71
2021/07/13 08:12:29;;;;;;;11.95;5.97;;;17.70;77.70;;;;;;5038173;28;20464;-71
2021/07/13 08:14:55;;;;;;;12.77;6.22;;;17.60;77.80;;;;;;5038156;28;20057;-71
2021/07/13 08:17:21;;;;;;;13.80;6.13;;;17.70;78.00;;;;;;5037641;28;20053;-71
2021/07/13 08:19:47;;;;;;;10.52;5.63;;;17.70;78.00;;;;;;5037940;28;20071;-71
2021/07/13 08:22:13;;;;;;;10.52;5.68;;;17.80;77.80;;;;;;5038040;28;20029;-71
2021/07/13 08:24:39;;;;;;;14.75;5.78;;;17.90;78.00;;;;;;5037912;28;20108;-71
2021/07/13 08:27:07;;;;;;;11.65;5.95;;;18.00;78.00;;;;;;5037028;28;20025;-71
2021/07/13 08:29:33;;;;;;;11.15;5.35;;;18.10;77.60;;;;;;5037963;28;20489;-71
2021/07/13 08:31:59;;;;;;;11.32;5.40;;;18.10;77.40;;;;;;5037635;28;20384;-72
2021/07/13 08:34:26;;;;;;;11.10;5.97;;;18.10;77.40;;;;;;5037647;28;20030;-71
2021/07/13 08:36:53;;;;;;;10.77;5.20;;;18.10;77.50;;;;;;5034555;28;20031;-71
2021/07/13 08:39:19;;;;;;;12.48;5.35;;;18.20;77.40;;;;;;5027417;28;20076;-71
2021/07/13 08:41:46;;;;;;;12.43;6.18;;;18.20;77.10;;;;;;5037498;28;20152;-70
2021/07/13 08:44:12;;;;;;;8.77;5.63;;;18.30;77.30;;;;;;5036542;28;20036;-71
2021/07/13 08:46:39;;;;;;;9.35;5.65;;;18.40;77.10;;;;;;5034328;28;20025;-71
2021/07/13 08:49:08;;;;;;;10.32;5.65;;;18.40;77.00;;;;;;5037294;28;20107;-71
2021/07/13 08:51:34;;;;;;;10.15;5.82;;;18.40;76.50;;;;;;5037061;28;20039;-71
2021/07/13 08:54:01;;;;;;;9.05;5.40;;;18.40;76.20;;;;;;5037541;28;20034;-71
2021/07/13 08:56:31;;;;;;;10.35;5.47;;;18.50;75.90;;;;;;5037272;28;20388;-71
2021/07/13 08:58:57;;;;;;;11.32;6.20;;;18.40;75.70;;;;;;5036307;28;20060;-71
2021/07/13 09:01:23;;;;;;;10.85;6.03;;;18.50;76.00;;;;;;5037405;28;20030;-71
2021/07/13 09:03:58;;;;;;;10.60;5.55;;;18.50;76.30;;;;;;5037390;28;20091;-71
2021/07/13 09:06:25;;;;;;;10.70;5.75;;;18.60;76.40;;;;;;5037327;28;20025;-71
2021/07/13 09:08:51;;;;;;;8.88;5.70;;;18.70;76.40;;;;;;5037398;28;20025;-71
2021/07/13 09:11:21;;;;;;;11.77;5.38;;;18.80;76.80;;;;;;5024320;28;20380;-71
2021/07/13 09:13:50;;;;;;;12.43;6.15;;;18.80;75.50;;;;;;5037085;28;20076;-71
2021/07/13 09:16:21;;;;;;;10.95;5.60;;;18.80;75.50;;;;;;5037419;28;20064;-71
2021/07/13 09:18:52;;;;;;;11.00;5.88;;;18.90;75.40;;;;;;5036901;28;20098;-70
2021/07/13 09:21:33;;;;;;;10.88;5.57;;;18.90;75.40;;;;;;5037172;28;20073;-71
2021/07/13 09:24:22;;;;;;;11.25;5.75;;;19.00;74.80;;;;;;5037117;28;20029;-71
2021/07/13 09:26:49;;;;;;;13.75;6.53;;;19.00;74.60;;;;;;5037129;28;20387;-71
2021/07/13 09:29:33;;;;;;;11.52;5.80;;;18.90;74.50;;;;;;5037243;28;20053;-71
2021/07/13 09:32:17;;;;;;;9.52;5.90;;;19.00;74.90;;;;;;5037133;28;20028;-71
2021/07/13 09:34:55;;;;;;;9.68;5.38;;;19.10;75.00;;;;;;5037161;28;20029;-70
2021/07/13 09:37:31;;;;;;;9.23;5.50;;;19.20;75.30;;;;;;5031726;28;20052;-70
2021/07/13 09:40:05;;;;;;;10.07;6.55;;;19.30;73.70;;;;;;5035819;28;20025;-71
2021/07/13 09:42:33;;;;;;;9.52;5.45;;;19.40;73.70;;;;;;5041217;28;20041;-71
2021/07/13 09:45:35;;;;;;;11.18;5.80;;;19.40;74.10;;;;;;5035628;28;20033;-71
2021/07/13 09:48:10;;;;;;;9.65;6.13;;;19.60;74.30;;;;;;5038550;28;20096;-71
2021/07/13 09:50:49;;;;;;;12.63;6.82;;;19.70;74.10;;;;;;5040675;28;20144;-70
2021/07/13 09:53:17;;;;;;;11.38;6.93;;;19.70;73.60;;;;;;5040631;28;20049;-70
2021/07/13 09:55:47;;;;;;;10.68;6.93;;;19.80;73.80;;;;;;5039097;28;20028;-71
2021/07/13 09:58:25;;;;;;;9.82;5.80;;;19.90;73.70;;;;;;5040546;28;20026;-73
2021/07/13 10:00:58;;;;;;;10.70;6.38;;;20.10;74.30;;;;;;5040528;28;20075;-72
2021/07/13 10:03:25;;;;;;;11.10;6.65;;;20.40;75.70;;;;;;5040106;28;20459;-71
2021/07/13 10:05:54;;;;;;;9.85;5.80;;;20.90;77.10;;;;;;5040660;28;20061;-72
2021/07/13 10:08:22;;;;;;;8.27;5.70;;;21.30;73.90;;;;;;5040557;28;20025;-72
2021/07/13 10:10:49;;;;;;;9.65;5.65;;;21.50;72.80;;;;;;5040218;28;20443;-72
2021/07/13 10:13:17;;;;;;;11.48;6.20;;;21.60;72.70;;;;;;5040519;28;20114;-72
2021/07/13 10:15:48;;;;;;;10.23;6.38;;;21.50;72.00;;;;;;5040260;28;20029;-72
2021/07/13 10:18:15;;;;;;;10.43;6.83;;;21.60;71.60;;;;;;5040261;28;20024;-71
2021/07/13 10:20:42;;;;;;;10.20;5.60;;;21.60;71.00;;;;;;5039951;28;20091;-71
2021/07/13 10:23:10;;;;;;;9.07;5.53;;;21.60;70.90;;;;;;5040264;28;20025;-72
2021/07/13 10:25:45;;;;;;;12.27;5.85;;;21.40;70.20;;;;;;5040038;28;20496;-72
2021/07/13 10:28:18;;;;;;;12.82;6.57;;;21.40;70.50;;;;;;5040374;28;20114;-72
2021/07/13 10:30:45;;;;;;;13.13;6.65;;;21.30;70.10;;;;;;5039943;28;20477;-71
2021/07/13 10:33:28;;;;;;;10.75;5.95;;;21.20;69.50;;;;;;5039859;28;20040;-71
2021/07/13 10:35:56;;;;;;;11.68;6.43;;;21.10;69.80;;;;;;5040262;28;20071;-72
2021/07/13 10:38:25;;;;;;;10.90;6.15;;;21.00;70.20;;;;;;5026979;28;20034;-72
2021/07/13 10:40:58;;;;;;;11.82;6.50;;;21.00;71.00;;;;;;5039855;28;20026;-72
2021/07/13 10:43:27;;;;;;;14.00;7.50;;;21.10;71.40;;;;;;5039979;28;20037;-72
2021/07/13 10:46:10;;;;;;;12.73;7.40;;;21.20;71.40;;;;;;5035473;28;20052;-72
2021/07/13 10:48:39;;;;;;;9.65;6.25;;;21.20;71.30;;;;;;5039114;28;20018;-72
2021/07/13 10:51:08;;;;;;;11.95;6.28;;;21.30;71.10;;;;;;5039454;28;20033;-72
2021/07/13 10:53:35;;;;;;;11.57;6.28;;;21.40;70.50;;;;;;5040020;28;20025;-72
2021/07/13 10:56:04;;;;;;;11.10;6.47;;;21.40;71.00;;;;;;5039829;28;20025;-72
2021/07/13 10:58:34;;;;;;;14.98;7.35;;;21.50;71.10;;;;;;5039642;28;20499;-72
2021/07/13 11:01:05;;;;;;;10.35;6.25;;;21.60;71.00;;;;;;5039295;28;20021;-74
2021/07/13 11:03:35;;;;;;;9.80;5.88;;;21.70;70.60;;;;;;5039566;28;20045;-72
2021/07/13 11:06:16;;;;;;;10.70;5.93;;;21.70;70.50;;;;;;5039429;28;20025;-72
2021/07/13 11:08:44;;;;;;;9.88;6.15;;;21.70;70.10;;;;;;5039587;28;20032;-72
2021/07/13 11:11:18;;;;;;;10.80;6.97;;;21.80;70.40;;;;;;5039051;28;20491;-71
2021/07/13 11:14:05;;;;;;;10.73;7.00;;;21.90;69.80;;;;;;5039412;28;20109;-72
2021/07/13 11:16:35;;;;;;;11.68;6.47;;;22.00;70.30;;;;;;5039696;28;20479;-72
2021/07/13 11:19:03;;;;;;;12.25;6.03;;;22.00;70.20;;;;;;5038842;28;20029;-72
2021/07/13 11:21:31;;;;;;;9.15;6.38;;;21.90;69.60;;;;;;5039017;28;20132;-71
2021/07/13 11:23:58;;;;;;;9.65;6.45;;;21.90;69.40;;;;;;5038976;28;20065;-72
2021/07/13 11:26:26;;;;;;;8.80;6.32;;;21.80;67.70;;;;;;5039093;28;20168;-72
2021/07/13 11:28:57;;;;;;;12.43;6.60;;;21.70;68.20;;;;;;5038862;28;20029;-71
2021/07/13 11:31:33;;;;;;;11.32;6.53;;;21.60;68.60;;;;;;5041247;28;20084;-71
2021/07/13 11:34:05;;;;;;;9.27;6.32;;;21.60;68.80;;;;;;5027050;28;20030;-71
2021/07/13 11:36:33;;;;;;;9.32;6.32;;;21.60;68.50;;;;;;5038913;28;20017;-72
2021/07/13 11:39:01;;;;;;;9.20;6.03;;;21.60;69.00;;;;;;5025784;28;20029;-72
2021/07/13 11:41:27;;;;;;;8.45;5.82;;;21.70;69.40;;;;;;5038845;28;20053;-72
2021/07/13 11:43:55;;;;;;;9.60;6.38;;;21.70;69.60;;;;;;5034270;28;20034;-71
2021/07/13 11:46:29;;;;;;;11.27;6.32;;;21.70;68.60;;;;;;5033745;28;20484;-72
2021/07/13 11:48:56;;;;;;;11.70;6.10;;;21.90;69.30;;;;;;5038560;28;20033;-72
2021/07/13 11:51:36;;;;;;;8.45;6.47;;;22.10;69.80;;;;;;5038628;28;20026;-72
2021/07/13 11:54:08;;;;;;;10.70;6.32;;;22.30;68.50;;;;;;5038742;28;20458;-72
2021/07/13 11:56:36;;;;;;;9.93;5.82;;;22.30;68.20;;;;;;5038307;28;20082;-72
2021/07/13 11:59:04;;;;;;;10.65;6.43;;;22.30;67.90;;;;;;5037254;28;20103;-72
2021/07/13 12:01:31;;;;;;;9.85;5.82;;;22.40;68.10;;;;;;5036779;28;20107;-72
2021/07/13 12:04:04;;;;;;;8.80;5.78;;;22.50;68.30;;;;;;5038301;28;20025;-72
2021/07/13 12:06:31;;;;;;;8.43;5.50;;;22.60;68.80;;;;;;5025585;28;20022;-72
2021/07/13 12:09:09;;;;;;;11.70;6.63;;;22.60;68.40;;;;;;5037776;28;20095;-72
2021/07/13 12:11:37;;;;;;;10.10;6.07;;;22.60;68.70;;;;;;5037998;28;20365;-72
2021/07/13 12:14:04;;;;;;;9.50;6.30;;;22.70;69.00;;;;;;5038184;28;20497;-72
2021/07/13 12:16:34;;;;;;;8.82;6.00;;;23.00;70.90;;;;;;5038429;28;20014;-71
2021/07/13 12:19:08;;;;;;;8.82;5.00;;;23.20;71.00;;;;;;5037457;28;20136;-72
2021/07/13 12:21:38;;;;;;;9.85;5.35;;;23.40;71.60;;;;;;5037832;28;20500;-73
2021/07/13 12:24:12;;;;;;;8.98;5.43;;;23.50;69.60;;;;;;5037834;28;20036;-72
2021/07/13 12:26:39;;;;;;;10.43;5.38;;;23.60;69.30;;;;;;5033116;28;20516;-72
2021/07/13 12:29:11;;;;;;;8.75;5.18;;;23.70;69.50;;;;;;5024774;28;20025;-72
2021/07/13 12:31:48;;;;;;;10.32;5.65;;;23.60;65.30;;;;;;5037821;28;20029;-72
2021/07/13 12:34:28;;;;;;;8.32;4.80;;;23.50;65.40;;;;;;5037638;28;20021;-72
2021/07/13 12:37:08;;;;;;;7.55;5.15;;;23.40;67.20;;;;;;5034775;28;20401;-72
2021/07/13 12:39:37;;;;;;;11.88;5.00;;;23.40;68.90;;;;;;5029926;28;20025;-72
2021/07/13 12:42:20;;;;;;;9.23;5.50;;;23.50;68.60;;;;;;5037502;28;20448;-72
2021/07/13 12:44:49;;;;;;;9.52;5.85;;;23.60;67.90;;;;;;5032774;28;20164;-72
2021/07/13 12:47:19;;;;;;;7.90;5.20;;;23.60;67.40;;;;;;5037713;28;20091;-71